createdAt,value
2022-11-29T00:01:12.269Z,101259.53
2022-11-29T00:03:40.245Z,101257.69
2022-11-29T00:06:10.672Z,101260.25
2022-11-29T00:08:39.022Z,101243.00
2022-11-29T00:11:07.521Z,101239.84
2022-11-29T00:13:35.663Z,101234.91
2022-11-29T00:16:06.912Z,101228.28
2022-11-29T00:18:34.993Z,101238.03
2022-11-29T00:21:07.244Z,101252.59
2022-11-29T00:23:35.444Z,101250.19
2022-11-29T00:26:07.607Z,101244.88
2022-11-29T00:28:36.793Z,101252.56
2022-11-29T00:31:16.302Z,101255.94
2022-11-29T00:33:44.102Z,101247.47
2022-11-29T00:36:12.240Z,101237.75
2022-11-29T00:38:40.393Z,101243.59
2022-11-29T00:41:08.616Z,101216.63
2022-11-29T00:43:36.552Z,101212.03
2022-11-29T00:46:05.054Z,101204.72
2022-11-29T00:48:34.362Z,101208.06
2022-11-29T00:51:02.389Z,101199.22
2022-11-29T00:53:32.970Z,101200.41
2022-11-29T00:56:00.704Z,101216.47
2022-11-29T00:58:28.540Z,101218.84
2022-11-29T01:00:57.122Z,101224.75
2022-11-29T01:03:25.659Z,101219.28
2022-11-29T01:06:00.920Z,101221.56
2022-11-29T01:08:28.917Z,101231.59
2022-11-29T01:11:03.891Z,101240.22
2022-11-29T01:13:31.642Z,101222.25
2022-11-29T01:15:59.726Z,101230.28
2022-11-29T01:18:27.522Z,101234.53
2022-11-29T01:21:01.952Z,101237.75
2022-11-29T01:23:30.138Z,101236.28
2022-11-29T01:25:59.847Z,101223.47
2022-11-29T01:28:28.605Z,101229.00
2022-11-29T01:30:56.470Z,101225.78
2022-11-29T01:33:24.301Z,101247.50
2022-11-29T01:35:53.474Z,101256.09
2022-11-29T01:38:23.694Z,101250.16
2022-11-29T01:40:59.820Z,101245.22
2022-11-29T01:43:27.975Z,101259.00
2022-11-29T01:45:55.955Z,101255.72
2022-11-29T01:48:27.150Z,101244.59
2022-11-29T01:50:56.282Z,101247.81
2022-11-29T01:53:25.422Z,101250.22
2022-11-29T01:55:57.547Z,101234.31
2022-11-29T01:58:25.490Z,101233.06
2022-11-29T02:00:53.434Z,101236.84
2022-11-29T02:03:21.211Z,101238.22
2022-11-29T02:05:51.459Z,101226.88
2022-11-29T02:08:26.175Z,101228.50
2022-11-29T02:11:16.811Z,101224.22
2022-11-29T02:13:54.638Z,101227.88
2022-11-29T02:16:29.050Z,101234.72
2022-11-29T02:19:11.122Z,101240.94
2022-11-29T02:21:47.564Z,101237.22
2022-11-29T02:24:47.727Z,101236.28
2022-11-29T02:27:45.845Z,101230.84
2022-11-29T02:30:34.668Z,101233.06
2022-11-29T02:33:43.902Z,101230.31
2022-11-29T02:36:34.081Z,101233.53
2022-11-29T02:39:18.883Z,101238.72
2022-11-29T02:42:22.288Z,101241.34
2022-11-29T02:45:08.788Z,101230.66
2022-11-29T02:47:53.226Z,101249.63
2022-11-29T02:50:35.580Z,101255.25
2022-11-29T02:53:11.501Z,101259.97
2022-11-29T02:55:47.587Z,101261.19
2022-11-29T02:58:24.340Z,101268.38
2022-11-29T03:01:00.644Z,101264.09
2022-11-29T03:03:36.669Z,101270.69
2022-11-29T03:06:13.037Z,101275.16
2022-11-29T03:08:51.546Z,101277.31
2022-11-29T03:11:29.301Z,101274.59
2022-11-29T03:14:12.939Z,101269.75
2022-11-29T03:16:47.853Z,101282.50
2022-11-29T03:19:36.174Z,101281.38
2022-11-29T03:22:13.030Z,101281.03
2022-11-29T03:24:48.886Z,101297.03
2022-11-29T03:27:22.967Z,101308.38
2022-11-29T03:29:57.832Z,101295.31
2022-11-29T03:32:31.670Z,101300.91
2022-11-29T03:35:05.679Z,101322.81
2022-11-29T03:37:42.936Z,101329.81
2022-11-29T03:40:15.646Z,101305.97
2022-11-29T03:42:51.003Z,101280.66
2022-11-29T03:45:25.909Z,101296.91
2022-11-29T03:48:01.002Z,101302.28
2022-11-29T03:50:35.673Z,101325.28
2022-11-29T03:53:15.608Z,101331.25
2022-11-29T03:55:54.776Z,101325.03
2022-11-29T03:58:35.613Z,101313.53
2022-11-29T04:01:30.391Z,101309.47
2022-11-29T04:04:26.539Z,101284.41
2022-11-29T04:07:09.818Z,101302.00
2022-11-29T04:09:58.176Z,101292.88
2022-11-29T04:12:44.477Z,101304.50
2022-11-29T04:15:45.503Z,101302.03
2022-11-29T04:18:59.997Z,101315.63
2022-11-29T04:21:34.717Z,101334.75
2022-11-29T04:24:34.759Z,101334.81
2022-11-29T04:27:38.844Z,101357.69
2022-11-29T04:30:19.880Z,101357.69
2022-11-29T04:33:18.143Z,101356.09
2022-11-29T04:36:28.615Z,101364.38
2022-11-29T04:39:30.439Z,101346.84
2022-11-29T04:42:27.876Z,101362.84
2022-11-29T04:45:13.742Z,101355.28
2022-11-29T04:47:56.772Z,101340.06
2022-11-29T04:50:35.052Z,101337.53
2022-11-29T04:53:25.327Z,101350.31
2022-11-29T04:56:02.308Z,101327.09
2022-11-29T04:58:37.846Z,101344.13
2022-11-29T05:01:19.253Z,101343.69
2022-11-29T05:03:57.258Z,101329.69
2022-11-29T05:06:33.632Z,101331.28
2022-11-29T05:09:07.105Z,101346.34
2022-11-29T05:11:51.153Z,101366.47
2022-11-29T05:14:34.371Z,101353.38
2022-11-29T05:17:17.768Z,101356.44
2022-11-29T05:19:59.490Z,101365.75
2022-11-29T05:22:36.704Z,101372.66
2022-11-29T05:25:23.118Z,101380.75
2022-11-29T05:27:57.868Z,101372.72
2022-11-29T05:30:31.690Z,101378.38
2022-11-29T05:33:10.723Z,101366.53
2022-11-29T05:35:55.763Z,101344.66
2022-11-29T05:38:38.591Z,101355.50
2022-11-29T05:41:21.219Z,101362.34
2022-11-29T05:44:00.862Z,101358.19
2022-11-29T05:46:33.144Z,101368.41
2022-11-29T05:49:16.568Z,101370.56
2022-11-29T05:51:54.494Z,101368.03
2022-11-29T05:54:30.615Z,101369.00
2022-11-29T05:57:12.576Z,101359.16
2022-11-29T05:59:42.407Z,101367.03
2022-11-29T06:02:24.055Z,101361.47
2022-11-29T06:05:06.473Z,101379.34
2022-11-29T06:07:42.545Z,101388.16
2022-11-29T06:10:13.527Z,101383.84
2022-11-29T06:12:44.567Z,101392.78
2022-11-29T06:15:31.810Z,101395.56
2022-11-29T06:18:19.103Z,101414.97
2022-11-29T06:21:02.568Z,101413.66
2022-11-29T06:24:09.730Z,101422.84
2022-11-29T06:27:08.154Z,101417.94
2022-11-29T06:29:43.304Z,101425.56
2022-11-29T06:32:21.859Z,101422.75
2022-11-29T06:34:58.965Z,101406.75
2022-11-29T06:37:30.830Z,101421.09
2022-11-29T06:40:00.508Z,101438.84
2022-11-29T06:42:28.221Z,101465.91
2022-11-29T06:44:56.600Z,101458.03
2022-11-29T06:47:29.349Z,101471.41
2022-11-29T06:50:02.511Z,101455.47
2022-11-29T06:52:38.676Z,101437.47
2022-11-29T06:55:23.677Z,101423.28
2022-11-29T06:58:04.181Z,101421.47
2022-11-29T07:00:41.155Z,101409.59
2022-11-29T07:03:33.742Z,101419.22
2022-11-29T07:06:09.753Z,101446.28
2022-11-29T07:08:38.080Z,101455.50
2022-11-29T07:11:08.154Z,101449.94
2022-11-29T07:13:38.321Z,101449.22
2022-11-29T07:16:15.048Z,101437.94
2022-11-29T07:18:52.157Z,101446.47
2022-11-29T07:21:28.787Z,101463.63
2022-11-29T07:24:08.612Z,101472.38
2022-11-29T07:26:47.371Z,101478.25
2022-11-29T07:29:25.623Z,101492.63
2022-11-29T07:32:04.381Z,101503.63
2022-11-29T07:34:41.312Z,101485.44
2022-11-29T07:37:20.717Z,101501.22
2022-11-29T07:40:00.196Z,101467.53
2022-11-29T07:42:37.446Z,101473.78
2022-11-29T07:45:17.674Z,101491.16
2022-11-29T07:47:46.259Z,101483.22
2022-11-29T07:50:14.481Z,101469.28
2022-11-29T07:52:42.370Z,101465.13
2022-11-29T07:55:18.435Z,101474.63
2022-11-29T07:57:48.663Z,101463.97
2022-11-29T08:00:17.582Z,101464.78
2022-11-29T08:02:45.321Z,101464.97
2022-11-29T08:05:13.531Z,101475.44
2022-11-29T08:07:42.277Z,101468.16
2022-11-29T08:10:12.518Z,101481.53
2022-11-29T08:12:43.932Z,101481.88
2022-11-29T08:15:13.626Z,101495.38
2022-11-29T08:17:41.628Z,101468.16
2022-11-29T08:20:10.903Z,101461.50
2022-11-29T08:22:38.895Z,101475.13
2022-11-29T08:25:08.531Z,101469.06
2022-11-29T08:27:37.043Z,101469.03
2022-11-29T08:30:05.678Z,101485.09
2022-11-29T08:32:35.448Z,101503.59
2022-11-29T08:35:03.284Z,101524.50
2022-11-29T08:37:31.055Z,101498.63
2022-11-29T08:39:58.993Z,101498.78
2022-11-29T08:42:27.020Z,101499.66
2022-11-29T08:44:55.004Z,101511.06
2022-11-29T08:47:37.762Z,101502.03
2022-11-29T08:50:12.133Z,101508.44
2022-11-29T08:52:59.966Z,101506.75
2022-11-29T08:55:31.686Z,101505.22
2022-11-29T08:58:03.795Z,101494.38
2022-11-29T09:00:32.006Z,101500.59
2022-11-29T09:03:20.158Z,101515.97
2022-11-29T09:05:49.355Z,101527.47
2022-11-29T09:08:17.265Z,101528.75
2022-11-29T09:10:45.476Z,101519.34
2022-11-29T09:13:13.677Z,101525.78
2022-11-29T09:15:43.584Z,101528.22
2022-11-29T09:18:11.654Z,101541.16
2022-11-29T09:20:39.437Z,101525.78
2022-11-29T09:23:08.543Z,101514.72
2022-11-29T09:25:36.240Z,101512.56
2022-11-29T09:28:04.003Z,101489.81
2022-11-29T09:30:31.947Z,101501.34
2022-11-29T09:33:00.531Z,101487.06
2022-11-29T09:35:28.284Z,101498.34
2022-11-29T09:37:56.039Z,101497.78
2022-11-29T09:40:32.937Z,101500.56
2022-11-29T09:43:07.412Z,101496.22
2022-11-29T09:45:40.464Z,101497.59
2022-11-29T09:48:32.931Z,101487.41
2022-11-29T09:51:15.191Z,101497.69
2022-11-29T09:53:59.387Z,101504.94
2022-11-29T09:56:35.592Z,101496.75
2022-11-29T09:59:07.121Z,101510.41
2022-11-29T10:01:39.597Z,101521.75
2022-11-29T10:04:13.816Z,101510.91
2022-11-29T10:06:46.909Z,101516.16
2022-11-29T10:09:18.834Z,101509.06
2022-11-29T10:12:00.970Z,101499.53
2022-11-29T10:14:34.755Z,101491.59
2022-11-29T10:17:12.455Z,101491.50
2022-11-29T10:19:45.534Z,101500.34
2022-11-29T10:22:19.815Z,101496.75
2022-11-29T10:24:50.992Z,101498.03
2022-11-29T10:27:23.703Z,101511.19
2022-11-29T10:29:51.927Z,101513.22
2022-11-29T10:32:21.585Z,101515.22
2022-11-29T10:34:50.173Z,101524.00
2022-11-29T10:37:20.495Z,101519.56
2022-11-29T10:39:50.538Z,101519.53
2022-11-29T10:42:39.480Z,101528.38
2022-11-29T10:45:16.615Z,101525.88
2022-11-29T10:47:47.096Z,101520.75
2022-11-29T10:50:19.485Z,101518.22
2022-11-29T10:52:47.206Z,101529.97
2022-11-29T10:55:17.338Z,101529.28
2022-11-29T10:58:15.695Z,101518.16
2022-11-29T11:00:46.040Z,101525.50
2022-11-29T11:03:17.896Z,101521.44
2022-11-29T11:05:58.825Z,101526.41
2022-11-29T11:08:27.463Z,101520.78
2022-11-29T11:11:01.210Z,101513.69
2022-11-29T11:13:32.795Z,101519.56
2022-11-29T11:16:10.322Z,101520.25
2022-11-29T11:18:39.051Z,101509.22
2022-11-29T11:21:10.301Z,101513.81
2022-11-29T11:23:43.524Z,101515.22
2022-11-29T11:26:13.942Z,101532.78
2022-11-29T11:28:50.257Z,101528.84
2022-11-29T11:31:32.301Z,101524.25
2022-11-29T11:34:24.751Z,101538.38
2022-11-29T11:36:52.688Z,101523.06
2022-11-29T11:39:22.582Z,101536.50
2022-11-29T11:42:10.209Z,101531.81
2022-11-29T11:44:49.583Z,101521.03
2022-11-29T11:47:20.382Z,101527.44
2022-11-29T11:49:51.010Z,101534.19
2022-11-29T11:52:23.058Z,101536.00
2022-11-29T11:54:55.927Z,101530.44
2022-11-29T11:57:26.034Z,101540.75
2022-11-29T12:00:02.035Z,101543.78
2022-11-29T12:02:39.816Z,101532.78
2022-11-29T12:05:14.620Z,101543.59
2022-11-29T12:08:13.575Z,101551.34
2022-11-29T12:10:36.691Z,101559.88
2022-11-29T12:13:06.006Z,101542.47
2022-11-29T12:15:39.458Z,101555.59
2022-11-29T12:18:12.551Z,101542.31
2022-11-29T12:20:45.255Z,101542.31
2022-11-29T12:23:24.625Z,101545.56
2022-11-29T12:25:57.159Z,101552.03
2022-11-29T12:28:28.914Z,101542.09
2022-11-29T12:31:04.389Z,101542.84
2022-11-29T12:33:42.011Z,101553.84
2022-11-29T12:36:24.293Z,101541.47
2022-11-29T12:39:04.786Z,101546.56
2022-11-29T12:41:43.607Z,101559.38
2022-11-29T12:44:19.576Z,101544.72
2022-11-29T12:47:02.111Z,101551.56
2022-11-29T12:49:53.913Z,101569.84
2022-11-29T12:52:28.104Z,101573.19
2022-11-29T12:55:08.014Z,101566.81
2022-11-29T12:57:47.894Z,101566.94
2022-11-29T13:00:17.469Z,101565.03
2022-11-29T13:02:57.708Z,101569.66
2022-11-29T13:05:35.480Z,101569.69
2022-11-29T13:08:20.460Z,101589.31
2022-11-29T13:11:04.714Z,101585.09
2022-11-29T13:13:40.549Z,101593.84
2022-11-29T13:16:26.300Z,101601.88
2022-11-29T13:19:03.829Z,101595.59
2022-11-29T13:21:41.452Z,101587.63
2022-11-29T13:24:15.434Z,101606.78
2022-11-29T13:26:44.543Z,101605.56
2022-11-29T13:29:16.677Z,101603.28
2022-11-29T13:31:45.682Z,101591.44
2022-11-29T13:34:20.710Z,101569.22
2022-11-29T13:36:58.945Z,101577.13
2022-11-29T13:39:41.996Z,101574.19
2022-11-29T13:42:17.891Z,101574.94
2022-11-29T13:44:50.674Z,101575.78
2022-11-29T13:47:20.023Z,101586.94
2022-11-29T13:49:55.142Z,101593.94
2022-11-29T13:52:39.818Z,101599.94
2022-11-29T13:55:18.465Z,101592.47
2022-11-29T13:58:15.676Z,101599.09
2022-11-29T14:00:50.640Z,101598.09
2022-11-29T14:03:42.948Z,101604.34
2022-11-29T14:06:18.368Z,101608.38
2022-11-29T14:09:18.423Z,101600.09
2022-11-29T14:11:50.132Z,101597.66
2022-11-29T14:14:26.928Z,101602.56
2022-11-29T14:16:59.288Z,101623.22
2022-11-29T14:19:33.329Z,101614.03
2022-11-29T14:22:23.987Z,101643.03
2022-11-29T14:25:49.662Z,101622.97
2022-11-29T14:28:30.342Z,101622.50
2022-11-29T14:31:01.514Z,101624.88
2022-11-29T14:33:39.268Z,101620.53
2022-11-29T14:36:33.228Z,101626.09
2022-11-29T14:39:15.720Z,101632.16
2022-11-29T14:41:55.186Z,101620.25
2022-11-29T14:44:26.031Z,101626.63
2022-11-29T14:47:02.837Z,101628.75
2022-11-29T14:49:32.879Z,101623.63
2022-11-29T14:52:10.250Z,101639.88
2022-11-29T14:54:55.671Z,101641.13
2022-11-29T14:58:06.986Z,101642.09
2022-11-29T15:00:56.151Z,101646.06
2022-11-29T15:03:31.780Z,101648.38
2022-11-29T15:06:02.078Z,101645.56
2022-11-29T15:08:36.494Z,101644.38
2022-11-29T15:11:13.070Z,101636.78
2022-11-29T15:13:49.724Z,101643.97
2022-11-29T15:16:42.805Z,101639.34
2022-11-29T15:19:43.554Z,101635.41
2022-11-29T15:22:16.745Z,101641.53
2022-11-29T15:24:53.082Z,101639.44
2022-11-29T15:27:22.985Z,101646.09
2022-11-29T15:29:52.340Z,101645.38
2022-11-29T15:32:26.111Z,101643.38
2022-11-29T15:34:55.477Z,101658.81
2022-11-29T15:37:25.391Z,101654.53
2022-11-29T15:40:03.947Z,101659.50
2022-11-29T15:42:42.485Z,101657.88
2022-11-29T15:45:33.143Z,101665.53
2022-11-29T15:48:17.993Z,101660.81
2022-11-29T15:50:51.862Z,101664.34
2022-11-29T15:53:24.841Z,101667.31
2022-11-29T15:55:57.632Z,101673.56
2022-11-29T15:58:28.981Z,101666.03
2022-11-29T16:00:58.945Z,101676.59
2022-11-29T16:03:29.944Z,101671.56
2022-11-29T16:06:04.454Z,101672.13
2022-11-29T16:08:38.012Z,101681.50
2022-11-29T16:11:06.986Z,101680.34
2022-11-29T16:13:38.395Z,101681.53
2022-11-29T16:16:10.757Z,101689.84
2022-11-29T16:18:41.950Z,101680.38
2022-11-29T16:21:24.092Z,101687.78
2022-11-29T16:23:51.891Z,101686.59
2022-11-29T16:26:22.904Z,101696.81
2022-11-29T16:28:54.704Z,101699.97
2022-11-29T16:31:24.348Z,101695.66
2022-11-29T16:33:53.689Z,101700.91
2022-11-29T16:36:24.483Z,101713.47
2022-11-29T16:38:55.346Z,101711.69
2022-11-29T16:41:25.656Z,101693.00
2022-11-29T16:43:57.493Z,101701.22
2022-11-29T16:46:32.344Z,101700.00
2022-11-29T16:49:02.512Z,101698.69
2022-11-29T16:51:38.696Z,101703.72
2022-11-29T16:54:23.961Z,101695.50
2022-11-29T16:56:52.761Z,101697.19
2022-11-29T16:59:27.471Z,101698.38
2022-11-29T17:01:56.669Z,101704.13
2022-11-29T17:04:25.307Z,101703.22
2022-11-29T17:06:54.020Z,101698.13
2022-11-29T17:09:25.389Z,101695.75
2022-11-29T17:11:53.334Z,101703.34
2022-11-29T17:14:22.385Z,101698.97
2022-11-29T17:16:50.478Z,101694.75
2022-11-29T17:19:19.422Z,101703.03
2022-11-29T17:21:47.513Z,101699.22
2022-11-29T17:24:17.149Z,101705.59
2022-11-29T17:26:46.212Z,101711.50
2022-11-29T17:29:15.613Z,101712.81
2022-11-29T17:31:46.366Z,101720.50
2022-11-29T17:34:14.448Z,101716.66
2022-11-29T17:36:42.573Z,101708.31
2022-11-29T17:39:10.329Z,101720.34
2022-11-29T17:41:38.174Z,101726.75
2022-11-29T17:44:06.288Z,101718.09
2022-11-29T17:46:35.873Z,101719.91
2022-11-29T17:49:07.297Z,101725.31
2022-11-29T17:51:53.740Z,101728.66
2022-11-29T17:54:22.183Z,101729.50
2022-11-29T17:56:50.307Z,101727.84
2022-11-29T17:59:18.025Z,101725.75
2022-11-29T18:01:47.037Z,101736.50
2022-11-29T18:04:16.427Z,101744.31
2022-11-29T18:06:49.776Z,101749.50
2022-11-29T18:09:19.545Z,101751.25
2022-11-29T18:11:49.913Z,101753.88
2022-11-29T18:14:20.229Z,101752.00
2022-11-29T18:16:48.100Z,101760.00
2022-11-29T18:19:19.459Z,101762.06
2022-11-29T18:21:47.373Z,101754.91
2022-11-29T18:24:15.098Z,101763.44
2022-11-29T18:26:43.278Z,101756.91
2022-11-29T18:29:11.326Z,101766.84
2022-11-29T18:31:41.012Z,101762.53
2022-11-29T18:34:10.625Z,101755.13
2022-11-29T18:36:45.847Z,101771.44
2022-11-29T18:39:15.324Z,101766.50
2022-11-29T18:41:45.234Z,101770.66
2022-11-29T18:44:15.183Z,101769.75
2022-11-29T18:46:44.662Z,101767.03
2022-11-29T18:49:14.270Z,101770.50
2022-11-29T18:51:45.803Z,101769.34
2022-11-29T18:54:14.238Z,101774.44
2022-11-29T18:56:42.828Z,101806.59
2022-11-29T18:59:12.362Z,101793.53
2022-11-29T19:01:42.535Z,101781.31
2022-11-29T19:04:12.526Z,101779.09
2022-11-29T19:06:40.521Z,101774.88
2022-11-29T19:09:13.246Z,101773.47
2022-11-29T19:11:41.243Z,101774.09
2022-11-29T19:14:12.546Z,101770.66
2022-11-29T19:16:42.080Z,101774.53
2022-11-29T19:19:09.937Z,101787.00
2022-11-29T19:21:39.626Z,101787.38
2022-11-29T19:24:15.117Z,101787.38
2022-11-29T19:26:45.342Z,101782.47
2022-11-29T19:29:13.860Z,101780.97
2022-11-29T19:31:42.560Z,101785.03
2022-11-29T19:34:10.461Z,101780.78
2022-11-29T19:36:42.822Z,101781.13
2022-11-29T19:39:13.534Z,101787.00
2022-11-29T19:41:44.009Z,101791.94
2022-11-29T19:44:12.568Z,101801.81
2022-11-29T19:46:41.839Z,101811.09
2022-11-29T19:49:10.305Z,101799.78
2022-11-29T19:51:38.511Z,101805.09
2022-11-29T19:54:07.690Z,101802.94
2022-11-29T19:56:37.021Z,101798.34
2022-11-29T19:59:04.766Z,101800.84
2022-11-29T20:01:40.171Z,101800.09
2022-11-29T20:04:08.960Z,101800.97
2022-11-29T20:06:37.151Z,101801.84
2022-11-29T20:09:06.383Z,101798.94
2022-11-29T20:11:34.197Z,101797.41
2022-11-29T20:14:05.159Z,101804.94
2022-11-29T20:16:33.565Z,101806.28
2022-11-29T20:19:01.723Z,101804.56
2022-11-29T20:21:31.465Z,101807.34
2022-11-29T20:24:00.611Z,101814.09
2022-11-29T20:26:29.400Z,101817.59
2022-11-29T20:28:57.111Z,101817.47
2022-11-29T20:31:26.290Z,101818.81
2022-11-29T20:33:57.263Z,101819.78
2022-11-29T20:36:45.264Z,101822.47
2022-11-29T20:39:25.639Z,101819.34
2022-11-29T20:42:07.103Z,101823.09
2022-11-29T20:44:38.898Z,101814.25
2022-11-29T20:47:15.350Z,101814.91
2022-11-29T20:49:43.528Z,101813.66
2022-11-29T20:52:19.036Z,101828.97
2022-11-29T20:54:46.780Z,101833.13
2022-11-29T20:57:14.555Z,101828.09
2022-11-29T20:59:42.309Z,101819.00
2022-11-29T21:02:10.129Z,101822.09
2022-11-29T21:04:39.556Z,101826.69
2022-11-29T21:07:07.378Z,101824.50
2022-11-29T21:09:35.104Z,101820.50
2022-11-29T21:12:03.262Z,101820.66
2022-11-29T21:14:31.588Z,101816.69
2022-11-29T21:16:59.876Z,101828.84
2022-11-29T21:19:28.129Z,101831.28
2022-11-29T21:22:05.948Z,101833.81
2022-11-29T21:24:42.573Z,101835.47
2022-11-29T21:27:15.111Z,101838.47
2022-11-29T21:29:43.395Z,101837.53
2022-11-29T21:32:21.592Z,101837.75
2022-11-29T21:34:49.323Z,101836.63
2022-11-29T21:37:21.527Z,101832.13
2022-11-29T21:39:51.651Z,101823.66
2022-11-29T21:42:19.734Z,101827.59
2022-11-29T21:44:47.766Z,101828.81
2022-11-29T21:47:18.449Z,101832.75
2022-11-29T21:49:46.758Z,101828.81
2022-11-29T21:52:20.703Z,101831.28
2022-11-29T21:54:51.724Z,101834.38
2022-11-29T21:57:19.445Z,101833.75
2022-11-29T21:59:47.180Z,101840.00
2022-11-29T22:02:15.058Z,101831.53
2022-11-29T22:04:42.989Z,101830.34
2022-11-29T22:07:10.838Z,101834.91
2022-11-29T22:09:38.556Z,101839.09
2022-11-29T22:12:31.951Z,101838.28
2022-11-29T22:14:58.523Z,101834.53
2022-11-29T22:17:26.260Z,101837.19
2022-11-29T22:19:53.976Z,101845.09
2022-11-29T22:22:21.699Z,101849.38
2022-11-29T22:24:49.721Z,101855.09
2022-11-29T22:27:21.590Z,101855.56
2022-11-29T22:29:49.344Z,101847.94
2022-11-29T22:32:17.172Z,101839.31
2022-11-29T22:34:45.163Z,101847.59
2022-11-29T22:37:13.284Z,101845.44
2022-11-29T22:39:41.032Z,101850.09
2022-11-29T22:42:08.749Z,101844.16
2022-11-29T22:44:37.810Z,101844.50
2022-11-29T22:47:05.649Z,101844.72
2022-11-29T22:49:33.422Z,101849.47
2022-11-29T22:52:01.359Z,101845.44
2022-11-29T22:54:29.123Z,101861.06
2022-11-29T22:56:56.833Z,101855.38
2022-11-29T22:59:24.535Z,101868.25
2022-11-29T23:01:53.714Z,101866.72
2022-11-29T23:04:21.420Z,101862.63
2022-11-29T23:06:49.148Z,101848.41
2022-11-29T23:09:21.220Z,101850.81
2022-11-29T23:11:52.139Z,101844.81
2022-11-29T23:14:20.370Z,101856.91
2022-11-29T23:16:48.161Z,101859.84
2022-11-29T23:19:17.584Z,101865.44
2022-11-29T23:21:46.246Z,101860.97
2022-11-29T23:24:14.580Z,101856.22
2022-11-29T23:26:45.502Z,101860.16
2022-11-29T23:29:14.881Z,101857.94
2022-11-29T23:31:45.233Z,101860.22
2022-11-29T23:34:13.132Z,101864.09
2022-11-29T23:36:43.954Z,101865.63
2022-11-29T23:39:13.500Z,101858.38
2022-11-29T23:41:41.271Z,101865.78
2022-11-29T23:44:11.028Z,101864.25
2022-11-29T23:46:38.787Z,101862.09
2022-11-29T23:49:06.517Z,101861.22
2022-11-29T23:51:34.241Z,101863.22
2022-11-29T23:54:03.307Z,101868.47
2022-11-29T23:56:35.180Z,101858.53
2022-11-29T23:59:03.059Z,101874.09
